Flugplatz Hohn Airport

Bericht für ETNH

vom 29.01. um 19:20 UTC

Wind 17 kt aus 230° in Böen 27 kt

Sichtweite 6000 m

Temperatur 5.0°C

Taupunkt 3.0°C

Luftfeuchtigkeit 87%

Luftdruck 1011 hPa

ETNH 291920Z AUTO 23017G27KT 6000 // ////// 05/03 Q1011 ///
Keine Prognose (TAF) verfügbar.
Impressum